sensor_id;sensor_type;location;lat;lon;timestamp;P1;durP1;ratioP1;P2;durP2;ratioP2
75552;SDS011;64136;53.118;17.996;2023-03-01T00:01:45;42.60;;;16.80;;
75552;SDS011;64136;53.118;17.996;2023-03-01T00:04:12;48.90;;;19.60;;
75552;SDS011;64136;53.118;17.996;2023-03-01T00:06:38;50.70;;;17.40;;
75552;SDS011;64136;53.118;17.996;2023-03-01T00:09:05;40.30;;;13.70;;
75552;SDS011;64136;53.118;17.996;2023-03-01T00:11:32;37.70;;;13.70;;
75552;SDS011;64136;53.118;17.996;2023-03-01T00:13:59;39.70;;;15.30;;
75552;SDS011;64136;53.118;17.996;2023-03-01T00:16:32;37.90;;;13.50;;
75552;SDS011;64136;53.118;17.996;2023-03-01T00:19:00;28.70;;;11.90;;
75552;SDS011;64136;53.118;17.996;2023-03-01T00:21:27;23.10;;;9.10;;
75552;SDS011;64136;53.118;17.996;2023-03-01T00:23:55;35.00;;;12.30;;
75552;SDS011;64136;53.118;17.996;2023-03-01T00:26:22;31.10;;;12.60;;
75552;SDS011;64136;53.118;17.996;2023-03-01T00:28:49;25.60;;;9.60;;
75552;SDS011;64136;53.118;17.996;2023-03-01T00:31:18;31.90;;;11.30;;
75552;SDS011;64136;53.118;17.996;2023-03-01T00:33:46;24.70;;;10.50;;
75552;SDS011;64136;53.118;17.996;2023-03-01T00:36:13;23.30;;;8.80;;
75552;SDS011;64136;53.118;17.996;2023-03-01T00:38:42;21.50;;;8.40;;
75552;SDS011;64136;53.118;17.996;2023-03-01T00:41:11;28.10;;;10.50;;
75552;SDS011;64136;53.118;17.996;2023-03-01T00:43:39;26.50;;;9.90;;
75552;SDS011;64136;53.118;17.996;2023-03-01T00:46:08;29.40;;;10.80;;
75552;SDS011;64136;53.118;17.996;2023-03-01T00:48:37;33.50;;;13.00;;
75552;SDS011;64136;53.118;17.996;2023-03-01T00:51:05;34.00;;;12.70;;
75552;SDS011;64136;53.118;17.996;2023-03-01T00:53:33;27.10;;;10.60;;
75552;SDS011;64136;53.118;17.996;2023-03-01T00:56:00;31.20;;;10.90;;
75552;SDS011;64136;53.118;17.996;2023-03-01T00:58:26;32.20;;;10.10;;
75552;SDS011;64136;53.118;17.996;2023-03-01T01:00:53;26.70;;;8.80;;
75552;SDS011;64136;53.118;17.996;2023-03-01T01:03:20;19.90;;;7.80;;
75552;SDS011;64136;53.118;17.996;2023-03-01T01:05:47;22.60;;;8.30;;
75552;SDS011;64136;53.118;17.996;2023-03-01T01:08:13;20.30;;;9.50;;
75552;SDS011;64136;53.118;17.996;2023-03-01T01:10:39;19.30;;;7.40;;
75552;SDS011;64136;53.118;17.996;2023-03-01T01:13:06;18.20;;;8.00;;
75552;SDS011;64136;53.118;17.996;2023-03-01T01:15:33;21.50;;;8.60;;
75552;SDS011;64136;53.118;17.996;2023-03-01T01:18:01;21.10;;;8.40;;
75552;SDS011;64136;53.118;17.996;2023-03-01T01:20:28;20.70;;;8.10;;
75552;SDS011;64136;53.118;17.996;2023-03-01T01:22:54;21.00;;;7.30;;
75552;SDS011;64136;53.118;17.996;2023-03-01T01:25:21;22.20;;;9.00;;
75552;SDS011;64136;53.118;17.996;2023-03-01T01:27:47;23.10;;;7.60;;
75552;SDS011;64136;53.118;17.996;2023-03-01T01:30:14;26.10;;;10.20;;
75552;SDS011;64136;53.118;17.996;2023-03-01T01:32:40;23.50;;;9.40;;
75552;SDS011;64136;53.118;17.996;2023-03-01T01:35:07;19.70;;;7.70;;
75552;SDS011;64136;53.118;17.996;2023-03-01T01:37:33;21.00;;;8.10;;
75552;SDS011;64136;53.118;17.996;2023-03-01T01:40:00;21.00;;;7.20;;
75552;SDS011;64136;53.118;17.996;2023-03-01T01:42:30;18.30;;;6.80;;
75552;SDS011;64136;53.118;17.996;2023-03-01T01:47:47;26.50;;;9.90;;
75552;SDS011;64136;53.118;17.996;2023-03-01T01:50:14;28.70;;;11.30;;
75552;SDS011;64136;53.118;17.996;2023-03-01T01:52:44;24.90;;;9.40;;
75552;SDS011;64136;53.118;17.996;2023-03-01T01:55:14;24.00;;;7.70;;
75552;SDS011;64136;53.118;17.996;2023-03-01T01:57:47;17.30;;;6.70;;
75552;SDS011;64136;53.118;17.996;2023-03-01T02:00:23;21.30;;;7.90;;
75552;SDS011;64136;53.118;17.996;2023-03-01T02:05:24;18.90;;;7.10;;
75552;SDS011;64136;53.118;17.996;2023-03-01T02:08:12;23.00;;;8.00;;
75552;SDS011;64136;53.118;17.996;2023-03-01T02:10:40;17.80;;;6.00;;
75552;SDS011;64136;53.118;17.996;2023-03-01T02:13:07;19.80;;;7.00;;
75552;SDS011;64136;53.118;17.996;2023-03-01T02:15:34;23.90;;;9.10;;
75552;SDS011;64136;53.118;17.996;2023-03-01T02:18:02;27.40;;;9.50;;
75552;SDS011;64136;53.118;17.996;2023-03-01T02:20:33;24.50;;;9.60;;
75552;SDS011;64136;53.118;17.996;2023-03-01T02:23:07;24.80;;;9.20;;
75552;SDS011;64136;53.118;17.996;2023-03-01T02:25:36;28.60;;;10.20;;
75552;SDS011;64136;53.118;17.996;2023-03-01T02:28:20;16.90;;;6.60;;
75552;SDS011;64136;53.118;17.996;2023-03-01T02:30:47;26.20;;;9.80;;
75552;SDS011;64136;53.118;17.996;2023-03-01T02:33:19;22.00;;;8.30;;
75552;SDS011;64136;53.118;17.996;2023-03-01T02:35:45;21.00;;;8.90;;
75552;SDS011;64136;53.118;17.996;2023-03-01T02:38:12;21.00;;;8.10;;
75552;SDS011;64136;53.118;17.996;2023-03-01T02:40:38;18.70;;;7.30;;
75552;SDS011;64136;53.118;17.996;2023-03-01T02:43:07;20.30;;;7.60;;
75552;SDS011;64136;53.118;17.996;2023-03-01T02:45:36;23.70;;;9.10;;
75552;SDS011;64136;53.118;17.996;2023-03-01T02:48:03;20.60;;;7.00;;
75552;SDS011;64136;53.118;17.996;2023-03-01T02:53:35;19.00;;;9.50;;
75552;SDS011;64136;53.118;17.996;2023-03-01T02:56:08;15.90;;;5.70;;
75552;SDS011;64136;53.118;17.996;2023-03-01T02:58:40;24.30;;;9.20;;
75552;SDS011;64136;53.118;17.996;2023-03-01T03:01:12;21.90;;;9.00;;
75552;SDS011;64136;53.118;17.996;2023-03-01T03:03:41;21.50;;;7.60;;
75552;SDS011;64136;53.118;17.996;2023-03-01T03:06:08;17.60;;;6.80;;
75552;SDS011;64136;53.118;17.996;2023-03-01T03:08:35;13.50;;;5.90;;
75552;SDS011;64136;53.118;17.996;2023-03-01T03:11:02;17.20;;;6.40;;
75552;SDS011;64136;53.118;17.996;2023-03-01T03:13:29;13.80;;;6.60;;
75552;SDS011;64136;53.118;17.996;2023-03-01T03:15:55;22.10;;;8.90;;
75552;SDS011;64136;53.118;17.996;2023-03-01T03:18:22;22.90;;;8.50;;
75552;SDS011;64136;53.118;17.996;2023-03-01T03:20:52;23.90;;;8.00;;
75552;SDS011;64136;53.118;17.996;2023-03-01T03:23:20;14.50;;;6.10;;
75552;SDS011;64136;53.118;17.996;2023-03-01T03:25:48;20.20;;;7.40;;
75552;SDS011;64136;53.118;17.996;2023-03-01T03:29:02;13.50;;;6.10;;
75552;SDS011;64136;53.118;17.996;2023-03-01T03:31:29;15.50;;;5.90;;
75552;SDS011;64136;53.118;17.996;2023-03-01T03:33:55;14.50;;;5.20;;
75552;SDS011;64136;53.118;17.996;2023-03-01T03:36:23;11.50;;;4.90;;
75552;SDS011;64136;53.118;17.996;2023-03-01T03:38:50;13.40;;;6.10;;
75552;SDS011;64136;53.118;17.996;2023-03-01T03:41:17;20.60;;;7.90;;
75552;SDS011;64136;53.118;17.996;2023-03-01T03:43:44;14.80;;;6.30;;
75552;SDS011;64136;53.118;17.996;2023-03-01T03:46:10;15.80;;;6.30;;
75552;SDS011;64136;53.118;17.996;2023-03-01T03:48:41;13.30;;;6.10;;
75552;SDS011;64136;53.118;17.996;2023-03-01T03:51:11;15.40;;;6.50;;
75552;SDS011;64136;53.118;17.996;2023-03-01T03:53:39;14.10;;;6.10;;
75552;SDS011;64136;53.118;17.996;2023-03-01T03:56:05;12.40;;;6.00;;
75552;SDS011;64136;53.118;17.996;2023-03-01T03:58:32;11.80;;;4.80;;
75552;SDS011;64136;53.118;17.996;2023-03-01T04:00:59;11.80;;;5.40;;
75552;SDS011;64136;53.118;17.996;2023-03-01T04:03:27;19.00;;;7.30;;
75552;SDS011;64136;53.118;17.996;2023-03-01T04:05:53;12.00;;;6.00;;
75552;SDS011;64136;53.118;17.996;2023-03-01T04:08:21;14.10;;;5.50;;
75552;SDS011;64136;53.118;17.996;2023-03-01T04:13:18;8.00;;;3.80;;
75552;SDS011;64136;53.118;17.996;2023-03-01T04:15:50;16.20;;;5.50;;
75552;SDS011;64136;53.118;17.996;2023-03-01T04:18:18;18.80;;;7.00;;
75552;SDS011;64136;53.118;17.996;2023-03-01T04:20:47;17.90;;;6.80;;
75552;SDS011;64136;53.118;17.996;2023-03-01T04:23:14;19.60;;;7.70;;
75552;SDS011;64136;53.118;17.996;2023-03-01T04:25:45;16.50;;;5.90;;
75552;SDS011;64136;53.118;17.996;2023-03-01T04:28:23;14.10;;;5.30;;
75552;SDS011;64136;53.118;17.996;2023-03-01T04:30:53;22.20;;;8.50;;
75552;SDS011;64136;53.118;17.996;2023-03-01T04:33:21;17.00;;;7.00;;
75552;SDS011;64136;53.118;17.996;2023-03-01T04:35:47;18.70;;;8.20;;
75552;SDS011;64136;53.118;17.996;2023-03-01T04:38:16;14.80;;;6.40;;
75552;SDS011;64136;53.118;17.996;2023-03-01T04:40:42;13.50;;;4.30;;
75552;SDS011;64136;53.118;17.996;2023-03-01T04:43:09;18.40;;;7.60;;
75552;SDS011;64136;53.118;17.996;2023-03-01T04:45:37;16.00;;;6.10;;
75552;SDS011;64136;53.118;17.996;2023-03-01T04:48:03;16.00;;;5.90;;
75552;SDS011;64136;53.118;17.996;2023-03-01T04:50:30;17.70;;;7.10;;
75552;SDS011;64136;53.118;17.996;2023-03-01T04:52:58;18.80;;;7.00;;
75552;SDS011;64136;53.118;17.996;2023-03-01T04:55:27;17.70;;;6.00;;
75552;SDS011;64136;53.118;17.996;2023-03-01T04:57:54;15.20;;;5.10;;
75552;SDS011;64136;53.118;17.996;2023-03-01T05:00:21;9.50;;;4.30;;
75552;SDS011;64136;53.118;17.996;2023-03-01T05:02:49;16.50;;;7.00;;
75552;SDS011;64136;53.118;17.996;2023-03-01T05:05:21;17.30;;;6.60;;
75552;SDS011;64136;53.118;17.996;2023-03-01T05:07:54;19.40;;;8.50;;
75552;SDS011;64136;53.118;17.996;2023-03-01T05:10:23;14.10;;;5.40;;
75552;SDS011;64136;53.118;17.996;2023-03-01T05:12:50;19.10;;;7.90;;
75552;SDS011;64136;53.118;17.996;2023-03-01T05:15:18;15.90;;;5.90;;
75552;SDS011;64136;53.118;17.996;2023-03-01T05:17:48;19.70;;;8.10;;
75552;SDS011;64136;53.118;17.996;2023-03-01T05:20:15;15.80;;;6.60;;
75552;SDS011;64136;53.118;17.996;2023-03-01T05:22:42;16.20;;;6.60;;
75552;SDS011;64136;53.118;17.996;2023-03-01T05:25:08;17.50;;;7.90;;
75552;SDS011;64136;53.118;17.996;2023-03-01T05:27:35;17.70;;;7.00;;
75552;SDS011;64136;53.118;17.996;2023-03-01T05:30:02;23.00;;;8.30;;
75552;SDS011;64136;53.118;17.996;2023-03-01T05:32:43;22.50;;;8.50;;
75552;SDS011;64136;53.118;17.996;2023-03-01T05:35:12;22.70;;;10.90;;
75552;SDS011;64136;53.118;17.996;2023-03-01T05:37:41;19.80;;;8.60;;
75552;SDS011;64136;53.118;17.996;2023-03-01T05:40:09;25.90;;;9.30;;
75552;SDS011;64136;53.118;17.996;2023-03-01T05:42:42;18.70;;;6.70;;
75552;SDS011;64136;53.118;17.996;2023-03-01T05:45:13;19.50;;;7.30;;
75552;SDS011;64136;53.118;17.996;2023-03-01T05:47:42;17.40;;;6.00;;
75552;SDS011;64136;53.118;17.996;2023-03-01T05:50:11;15.00;;;5.50;;
75552;SDS011;64136;53.118;17.996;2023-03-01T05:52:45;22.70;;;7.80;;
75552;SDS011;64136;53.118;17.996;2023-03-01T05:55:15;15.60;;;6.80;;
75552;SDS011;64136;53.118;17.996;2023-03-01T05:57:43;19.70;;;6.30;;
75552;SDS011;64136;53.118;17.996;2023-03-01T06:00:10;22.80;;;7.50;;
75552;SDS011;64136;53.118;17.996;2023-03-01T06:05:09;12.30;;;5.60;;
75552;SDS011;64136;53.118;17.996;2023-03-01T06:07:37;17.00;;;6.70;;
75552;SDS011;64136;53.118;17.996;2023-03-01T06:10:04;14.40;;;5.70;;
75552;SDS011;64136;53.118;17.996;2023-03-01T06:12:32;11.50;;;4.70;;
75552;SDS011;64136;53.118;17.996;2023-03-01T06:15:00;22.90;;;8.90;;
75552;SDS011;64136;53.118;17.996;2023-03-01T06:17:28;17.10;;;6.70;;
75552;SDS011;64136;53.118;17.996;2023-03-01T06:19:58;18.80;;;7.00;;
75552;SDS011;64136;53.118;17.996;2023-03-01T06:22:24;16.90;;;6.90;;
75552;SDS011;64136;53.118;17.996;2023-03-01T06:24:50;19.30;;;7.30;;
75552;SDS011;64136;53.118;17.996;2023-03-01T06:27:17;17.60;;;7.40;;
75552;SDS011;64136;53.118;17.996;2023-03-01T06:29:43;17.50;;;7.40;;
75552;SDS011;64136;53.118;17.996;2023-03-01T06:32:10;25.40;;;9.80;;
75552;SDS011;64136;53.118;17.996;2023-03-01T06:34:37;25.70;;;10.10;;
75552;SDS011;64136;53.118;17.996;2023-03-01T06:37:03;20.80;;;9.40;;
75552;SDS011;64136;53.118;17.996;2023-03-01T06:39:31;19.20;;;7.40;;
75552;SDS011;64136;53.118;17.996;2023-03-01T06:41:58;24.30;;;10.10;;
75552;SDS011;64136;53.118;17.996;2023-03-01T06:44:25;20.50;;;8.70;;
75552;SDS011;64136;53.118;17.996;2023-03-01T06:46:52;21.40;;;8.70;;
75552;SDS011;64136;53.118;17.996;2023-03-01T06:49:19;19.20;;;8.50;;
75552;SDS011;64136;53.118;17.996;2023-03-01T06:51:45;19.00;;;8.80;;
75552;SDS011;64136;53.118;17.996;2023-03-01T06:54:15;24.00;;;10.20;;
75552;SDS011;64136;53.118;17.996;2023-03-01T06:56:46;15.90;;;6.30;;
75552;SDS011;64136;53.118;17.996;2023-03-01T06:59:15;20.90;;;9.30;;
75552;SDS011;64136;53.118;17.996;2023-03-01T07:01:42;27.90;;;8.40;;
75552;SDS011;64136;53.118;17.996;2023-03-01T07:04:11;14.90;;;4.70;;
75552;SDS011;64136;53.118;17.996;2023-03-01T07:06:39;24.50;;;9.00;;
75552;SDS011;64136;53.118;17.996;2023-03-01T07:09:06;18.70;;;8.10;;
75552;SDS011;64136;53.118;17.996;2023-03-01T07:11:34;10.60;;;5.40;;
75552;SDS011;64136;53.118;17.996;2023-03-01T07:14:01;14.60;;;6.70;;
75552;SDS011;64136;53.118;17.996;2023-03-01T07:16:27;16.60;;;6.80;;
75552;SDS011;64136;53.118;17.996;2023-03-01T07:18:53;17.30;;;7.40;;
75552;SDS011;64136;53.118;17.996;2023-03-01T07:21:20;24.50;;;9.90;;
75552;SDS011;64136;53.118;17.996;2023-03-01T07:23:47;12.10;;;5.70;;
75552;SDS011;64136;53.118;17.996;2023-03-01T07:26:14;19.30;;;7.60;;
75552;SDS011;64136;53.118;17.996;2023-03-01T07:28:40;14.40;;;7.00;;
75552;SDS011;64136;53.118;17.996;2023-03-01T07:31:07;16.70;;;7.90;;
75552;SDS011;64136;53.118;17.996;2023-03-01T07:33:33;24.10;;;9.20;;
75552;SDS011;64136;53.118;17.996;2023-03-01T07:36:00;21.00;;;8.30;;
75552;SDS011;64136;53.118;17.996;2023-03-01T07:38:29;10.90;;;5.20;;
75552;SDS011;64136;53.118;17.996;2023-03-01T07:40:59;22.00;;;9.70;;
75552;SDS011;64136;53.118;17.996;2023-03-01T07:43:31;10.70;;;4.50;;
75552;SDS011;64136;53.118;17.996;2023-03-01T07:45:59;11.30;;;4.20;;
75552;SDS011;64136;53.118;17.996;2023-03-01T07:48:29;11.10;;;4.10;;
75552;SDS011;64136;53.118;17.996;2023-03-01T07:51:00;14.10;;;6.50;;
75552;SDS011;64136;53.118;17.996;2023-03-01T07:53:32;16.30;;;6.20;;
75552;SDS011;64136;53.118;17.996;2023-03-01T07:56:04;9.70;;;3.80;;
75552;SDS011;64136;53.118;17.996;2023-03-01T07:58:35;17.80;;;6.50;;
75552;SDS011;64136;53.118;17.996;2023-03-01T08:01:04;12.20;;;5.00;;
75552;SDS011;64136;53.118;17.996;2023-03-01T08:03:32;8.70;;;4.00;;
75552;SDS011;64136;53.118;17.996;2023-03-01T08:06:00;11.40;;;5.20;;
75552;SDS011;64136;53.118;17.996;2023-03-01T08:08:28;13.60;;;5.80;;
75552;SDS011;64136;53.118;17.996;2023-03-01T08:10:56;14.70;;;6.40;;
75552;SDS011;64136;53.118;17.996;2023-03-01T08:13:32;20.70;;;7.40;;
75552;SDS011;64136;53.118;17.996;2023-03-01T08:16:04;14.70;;;6.70;;
75552;SDS011;64136;53.118;17.996;2023-03-01T08:18:33;11.60;;;4.90;;
75552;SDS011;64136;53.118;17.996;2023-03-01T08:21:06;19.30;;;8.20;;
75552;SDS011;64136;53.118;17.996;2023-03-01T08:23:39;16.50;;;7.30;;
75552;SDS011;64136;53.118;17.996;2023-03-01T08:26:11;16.10;;;6.00;;
75552;SDS011;64136;53.118;17.996;2023-03-01T08:28:40;19.40;;;8.10;;
75552;SDS011;64136;53.118;17.996;2023-03-01T08:33:58;14.50;;;5.80;;
75552;SDS011;64136;53.118;17.996;2023-03-01T08:36:31;10.80;;;4.60;;
75552;SDS011;64136;53.118;17.996;2023-03-01T08:39:14;24.60;;;11.20;;
75552;SDS011;64136;53.118;17.996;2023-03-01T08:41:52;25.30;;;10.00;;
75552;SDS011;64136;53.118;17.996;2023-03-01T08:44:19;31.60;;;12.20;;
75552;SDS011;64136;53.118;17.996;2023-03-01T08:46:47;18.80;;;10.10;;
75552;SDS011;64136;53.118;17.996;2023-03-01T08:49:17;28.20;;;12.50;;
75552;SDS011;64136;53.118;17.996;2023-03-01T08:52:09;19.90;;;9.50;;
75552;SDS011;64136;53.118;17.996;2023-03-01T08:54:39;14.20;;;6.70;;
75552;SDS011;64136;53.118;17.996;2023-03-01T08:57:05;26.50;;;11.00;;
75552;SDS011;64136;53.118;17.996;2023-03-01T08:59:32;18.80;;;9.40;;
75552;SDS011;64136;53.118;17.996;2023-03-01T09:02:04;24.60;;;10.80;;
75552;SDS011;64136;53.118;17.996;2023-03-01T09:04:31;15.30;;;7.70;;
75552;SDS011;64136;53.118;17.996;2023-03-01T09:07:22;19.10;;;8.80;;
75552;SDS011;64136;53.118;17.996;2023-03-01T09:10:09;18.40;;;8.20;;
75552;SDS011;64136;53.118;17.996;2023-03-01T09:12:36;24.00;;;10.20;;
75552;SDS011;64136;53.118;17.996;2023-03-01T09:15:03;9.70;;;5.80;;
75552;SDS011;64136;53.118;17.996;2023-03-01T09:17:30;26.40;;;11.90;;
75552;SDS011;64136;53.118;17.996;2023-03-01T09:19:57;20.60;;;9.40;;
75552;SDS011;64136;53.118;17.996;2023-03-01T09:22:23;19.00;;;9.90;;
75552;SDS011;64136;53.118;17.996;2023-03-01T09:24:49;30.00;;;15.10;;
75552;SDS011;64136;53.118;17.996;2023-03-01T09:27:19;19.90;;;8.40;;
75552;SDS011;64136;53.118;17.996;2023-03-01T09:29:45;25.80;;;9.80;;
75552;SDS011;64136;53.118;17.996;2023-03-01T09:32:11;16.10;;;7.80;;
75552;SDS011;64136;53.118;17.996;2023-03-01T09:34:38;23.40;;;9.60;;
75552;SDS011;64136;53.118;17.996;2023-03-01T09:37:27;17.60;;;8.50;;
75552;SDS011;64136;53.118;17.996;2023-03-01T09:39:54;13.50;;;8.00;;
75552;SDS011;64136;53.118;17.996;2023-03-01T09:42:20;19.40;;;7.40;;
75552;SDS011;64136;53.118;17.996;2023-03-01T09:44:52;13.90;;;7.10;;
75552;SDS011;64136;53.118;17.996;2023-03-01T09:47:26;22.50;;;10.50;;
75552;SDS011;64136;53.118;17.996;2023-03-01T09:49:58;19.50;;;9.20;;
75552;SDS011;64136;53.118;17.996;2023-03-01T09:52:47;18.40;;;7.80;;
75552;SDS011;64136;53.118;17.996;2023-03-01T10:01:31;19.00;;;8.60;;
75552;SDS011;64136;53.118;17.996;2023-03-01T10:09:47;18.50;;;8.70;;
75552;SDS011;64136;53.118;17.996;2023-03-01T10:12:18;15.00;;;7.80;;
75552;SDS011;64136;53.118;17.996;2023-03-01T10:17:36;21.20;;;10.30;;
75552;SDS011;64136;53.118;17.996;2023-03-01T10:20:17;17.90;;;8.50;;
75552;SDS011;64136;53.118;17.996;2023-03-01T10:22:50;15.90;;;6.50;;
75552;SDS011;64136;53.118;17.996;2023-03-01T10:25:25;17.90;;;7.60;;
75552;SDS011;64136;53.118;17.996;2023-03-01T10:28:16;13.60;;;6.00;;
75552;SDS011;64136;53.118;17.996;2023-03-01T10:30:46;19.60;;;8.90;;
75552;SDS011;64136;53.118;17.996;2023-03-01T10:33:17;20.50;;;8.60;;
75552;SDS011;64136;53.118;17.996;2023-03-01T10:35:49;13.30;;;6.80;;
75552;SDS011;64136;53.118;17.996;2023-03-01T10:38:16;18.40;;;8.60;;
75552;SDS011;64136;53.118;17.996;2023-03-01T10:51:44;15.40;;;7.10;;
75552;SDS011;64136;53.118;17.996;2023-03-01T10:54:28;18.00;;;7.40;;
75552;SDS011;64136;53.118;17.996;2023-03-01T10:56:57;20.40;;;9.10;;
75552;SDS011;64136;53.118;17.996;2023-03-01T10:59:33;19.80;;;9.10;;
75552;SDS011;64136;53.118;17.996;2023-03-01T11:02:16;15.80;;;7.90;;
75552;SDS011;64136;53.118;17.996;2023-03-01T11:04:59;10.90;;;5.90;;
75552;SDS011;64136;53.118;17.996;2023-03-01T11:10:20;18.50;;;8.80;;
75552;SDS011;64136;53.118;17.996;2023-03-01T11:12:50;15.90;;;8.90;;
75552;SDS011;64136;53.118;17.996;2023-03-01T11:15:22;18.30;;;7.70;;
75552;SDS011;64136;53.118;17.996;2023-03-01T11:17:54;19.50;;;8.80;;
75552;SDS011;64136;53.118;17.996;2023-03-01T11:20:29;24.30;;;13.70;;
75552;SDS011;64136;53.118;17.996;2023-03-01T11:23:05;17.70;;;8.80;;
75552;SDS011;64136;53.118;17.996;2023-03-01T11:25:38;16.20;;;7.80;;
75552;SDS011;64136;53.118;17.996;2023-03-01T11:28:10;12.10;;;6.20;;
75552;SDS011;64136;53.118;17.996;2023-03-01T11:30:48;13.00;;;7.60;;
75552;SDS011;64136;53.118;17.996;2023-03-01T11:36:21;17.50;;;7.90;;
75552;SDS011;64136;53.118;17.996;2023-03-01T11:38:50;18.90;;;9.40;;
75552;SDS011;64136;53.118;17.996;2023-03-01T11:41:17;16.20;;;8.30;;
75552;SDS011;64136;53.118;17.996;2023-03-01T11:44:01;15.40;;;6.50;;
75552;SDS011;64136;53.118;17.996;2023-03-01T11:46:50;10.20;;;4.20;;
75552;SDS011;64136;53.118;17.996;2023-03-01T11:49:41;18.30;;;8.30;;
75552;SDS011;64136;53.118;17.996;2023-03-01T11:58:35;16.70;;;8.00;;
75552;SDS011;64136;53.118;17.996;2023-03-01T12:01:24;13.60;;;7.60;;
75552;SDS011;64136;53.118;17.996;2023-03-01T12:04:17;10.00;;;4.70;;
75552;SDS011;64136;53.118;17.996;2023-03-01T12:10:15;10.00;;;3.70;;
75552;SDS011;64136;53.118;17.996;2023-03-01T12:18:46;9.20;;;4.30;;
75552;SDS011;64136;53.118;17.996;2023-03-01T12:24:10;15.20;;;6.20;;
75552;SDS011;64136;53.118;17.996;2023-03-01T12:31:07;8.80;;;4.40;;
75552;SDS011;64136;53.118;17.996;2023-03-01T12:35:51;11.30;;;6.50;;
75552;SDS011;64136;53.118;17.996;2023-03-01T12:38:33;12.10;;;5.60;;
75552;SDS011;64136;53.118;17.996;2023-03-01T12:41:15;12.20;;;5.90;;
75552;SDS011;64136;53.118;17.996;2023-03-01T12:43:49;15.10;;;7.00;;
75552;SDS011;64136;53.118;17.996;2023-03-01T12:49:20;10.20;;;5.40;;
75552;SDS011;64136;53.118;17.996;2023-03-01T12:51:59;11.60;;;5.20;;
75552;SDS011;64136;53.118;17.996;2023-03-01T12:54:35;13.20;;;6.40;;
75552;SDS011;64136;53.118;17.996;2023-03-01T13:02:36;11.30;;;6.70;;
75552;SDS011;64136;53.118;17.996;2023-03-01T13:05:19;16.00;;;9.10;;
75552;SDS011;64136;53.118;17.996;2023-03-01T13:08:02;12.30;;;6.50;;
75552;SDS011;64136;53.118;17.996;2023-03-01T13:15:46;13.30;;;7.30;;
75552;SDS011;64136;53.118;17.996;2023-03-01T13:20:58;11.70;;;5.70;;
75552;SDS011;64136;53.118;17.996;2023-03-01T13:23:26;13.00;;;6.80;;
75552;SDS011;64136;53.118;17.996;2023-03-01T13:26:07;11.50;;;6.70;;
75552;SDS011;64136;53.118;17.996;2023-03-01T13:28:45;11.70;;;7.10;;
75552;SDS011;64136;53.118;17.996;2023-03-01T13:37:18;14.50;;;7.80;;
75552;SDS011;64136;53.118;17.996;2023-03-01T13:39:47;12.80;;;7.50;;
75552;SDS011;64136;53.118;17.996;2023-03-01T13:45:05;10.40;;;6.30;;
75552;SDS011;64136;53.118;17.996;2023-03-01T13:47:42;10.20;;;5.60;;
75552;SDS011;64136;53.118;17.996;2023-03-01T13:50:16;8.60;;;6.00;;
75552;SDS011;64136;53.118;17.996;2023-03-01T13:52:48;13.60;;;6.60;;
75552;SDS011;64136;53.118;17.996;2023-03-01T13:55:23;10.50;;;6.20;;
75552;SDS011;64136;53.118;17.996;2023-03-01T13:57:57;11.90;;;6.60;;
75552;SDS011;64136;53.118;17.996;2023-03-01T14:00:27;11.00;;;6.20;;
75552;SDS011;64136;53.118;17.996;2023-03-01T14:03:01;11.10;;;6.40;;
75552;SDS011;64136;53.118;17.996;2023-03-01T14:05:32;7.40;;;4.80;;
75552;SDS011;64136;53.118;17.996;2023-03-01T14:07:59;9.40;;;5.70;;
75552;SDS011;64136;53.118;17.996;2023-03-01T14:10:28;12.30;;;7.40;;
75552;SDS011;64136;53.118;17.996;2023-03-01T14:18:44;8.30;;;5.00;;
75552;SDS011;64136;53.118;17.996;2023-03-01T14:21:24;10.80;;;7.10;;
75552;SDS011;64136;53.118;17.996;2023-03-01T14:23:52;13.60;;;8.80;;
75552;SDS011;64136;53.118;17.996;2023-03-01T14:26:21;11.10;;;6.70;;
75552;SDS011;64136;53.118;17.996;2023-03-01T14:28:49;12.80;;;6.80;;
75552;SDS011;64136;53.118;17.996;2023-03-01T14:34:00;13.50;;;8.90;;
75552;SDS011;64136;53.118;17.996;2023-03-01T14:36:28;12.40;;;7.90;;
75552;SDS011;64136;53.118;17.996;2023-03-01T14:38:56;13.00;;;8.20;;
75552;SDS011;64136;53.118;17.996;2023-03-01T14:41:32;10.50;;;7.10;;
75552;SDS011;64136;53.118;17.996;2023-03-01T14:44:02;13.00;;;8.10;;
75552;SDS011;64136;53.118;17.996;2023-03-01T14:46:36;10.00;;;6.30;;
75552;SDS011;64136;53.118;17.996;2023-03-01T14:49:05;12.10;;;8.00;;
75552;SDS011;64136;53.118;17.996;2023-03-01T14:51:42;12.40;;;6.70;;
75552;SDS011;64136;53.118;17.996;2023-03-01T14:54:24;13.30;;;8.20;;
75552;SDS011;64136;53.118;17.996;2023-03-01T14:56:58;14.60;;;9.20;;
75552;SDS011;64136;53.118;17.996;2023-03-01T14:59:28;12.20;;;6.70;;
75552;SDS011;64136;53.118;17.996;2023-03-01T15:01:55;15.90;;;7.40;;
75552;SDS011;64136;53.118;17.996;2023-03-01T15:04:23;10.80;;;6.30;;
75552;SDS011;64136;53.118;17.996;2023-03-01T15:06:52;10.30;;;5.60;;
75552;SDS011;64136;53.118;17.996;2023-03-01T15:09:23;8.70;;;5.50;;
75552;SDS011;64136;53.118;17.996;2023-03-01T15:11:50;12.00;;;5.60;;
75552;SDS011;64136;53.118;17.996;2023-03-01T15:17:19;12.30;;;6.10;;
75552;SDS011;64136;53.118;17.996;2023-03-01T15:19:58;10.70;;;4.60;;
75552;SDS011;64136;53.118;17.996;2023-03-01T15:22:25;10.50;;;5.10;;
75552;SDS011;64136;53.118;17.996;2023-03-01T15:24:53;11.40;;;5.40;;
75552;SDS011;64136;53.118;17.996;2023-03-01T15:27:21;10.70;;;5.60;;
75552;SDS011;64136;53.118;17.996;2023-03-01T15:29:50;10.30;;;4.50;;
75552;SDS011;64136;53.118;17.996;2023-03-01T15:32:26;20.70;;;9.70;;
75552;SDS011;64136;53.118;17.996;2023-03-01T15:37:52;14.20;;;6.10;;
75552;SDS011;64136;53.118;17.996;2023-03-01T15:40:21;16.20;;;7.40;;
75552;SDS011;64136;53.118;17.996;2023-03-01T15:42:57;18.00;;;10.90;;
75552;SDS011;64136;53.118;17.996;2023-03-01T15:45:29;16.90;;;8.50;;
75552;SDS011;64136;53.118;17.996;2023-03-01T15:50:28;14.80;;;7.60;;
75552;SDS011;64136;53.118;17.996;2023-03-01T15:52:59;23.60;;;11.20;;
75552;SDS011;64136;53.118;17.996;2023-03-01T15:55:27;14.50;;;6.30;;
75552;SDS011;64136;53.118;17.996;2023-03-01T16:00:40;22.30;;;11.10;;
75552;SDS011;64136;53.118;17.996;2023-03-01T16:03:08;18.40;;;10.60;;
75552;SDS011;64136;53.118;17.996;2023-03-01T16:05:37;29.00;;;13.50;;
75552;SDS011;64136;53.118;17.996;2023-03-01T16:08:05;27.60;;;13.10;;
75552;SDS011;64136;53.118;17.996;2023-03-01T16:10:32;19.70;;;9.20;;
75552;SDS011;64136;53.118;17.996;2023-03-01T16:12:59;27.30;;;11.00;;
75552;SDS011;64136;53.118;17.996;2023-03-01T16:15:30;22.10;;;10.60;;
75552;SDS011;64136;53.118;17.996;2023-03-01T16:17:58;18.90;;;10.60;;
75552;SDS011;64136;53.118;17.996;2023-03-01T16:20:24;20.00;;;9.70;;
75552;SDS011;64136;53.118;17.996;2023-03-01T16:22:51;17.80;;;9.20;;
75552;SDS011;64136;53.118;17.996;2023-03-01T16:25:18;18.70;;;9.30;;
75552;SDS011;64136;53.118;17.996;2023-03-01T16:27:47;22.80;;;11.80;;
75552;SDS011;64136;53.118;17.996;2023-03-01T16:30:16;25.00;;;10.30;;
75552;SDS011;64136;53.118;17.996;2023-03-01T16:32:45;19.60;;;8.90;;
75552;SDS011;64136;53.118;17.996;2023-03-01T16:35:14;28.20;;;11.50;;
75552;SDS011;64136;53.118;17.996;2023-03-01T16:37:45;27.50;;;10.70;;